createdAt,value
2022-08-11T00:02:26.358Z,25.40
2022-08-11T00:04:56.221Z,25.40
2022-08-11T00:07:26.157Z,25.40
2022-08-11T00:09:55.190Z,25.40
2022-08-11T00:12:23.858Z,25.40
2022-08-11T00:15:00.231Z,25.40
2022-08-11T00:17:31.577Z,25.40
2022-08-11T00:20:13.086Z,25.40
2022-08-11T00:22:46.112Z,25.50
2022-08-11T00:25:21.483Z,25.50
2022-08-11T00:27:53.084Z,25.50
2022-08-11T00:30:21.760Z,25.50
2022-08-11T00:33:03.007Z,25.50
2022-08-11T00:35:53.753Z,25.50
2022-08-11T00:38:25.085Z,25.50
2022-08-11T00:40:57.396Z,25.50
2022-08-11T00:43:40.171Z,25.60
2022-08-11T00:46:14.570Z,25.60
2022-08-11T00:49:01.848Z,25.60
2022-08-11T00:51:57.672Z,25.60
2022-08-11T00:54:40.496Z,25.60
2022-08-11T00:57:37.046Z,25.70
2022-08-11T01:00:24.453Z,25.70
2022-08-11T01:03:08.289Z,25.70
2022-08-11T01:05:39.796Z,25.80
2022-08-11T01:08:14.370Z,25.80
2022-08-11T01:10:56.331Z,25.90
2022-08-11T01:13:37.249Z,25.90
2022-08-11T01:16:24.090Z,25.90
2022-08-11T01:18:56.004Z,25.90
2022-08-11T01:21:48.246Z,25.90
2022-08-11T01:24:22.534Z,26.00
2022-08-11T01:27:00.364Z,26.00
2022-08-11T01:29:49.385Z,26.10
2022-08-11T01:32:36.748Z,26.20
2022-08-11T01:35:24.078Z,26.20
2022-08-11T01:38:10.741Z,26.30
2022-08-11T01:40:57.211Z,26.30
2022-08-11T01:44:02.802Z,26.30
2022-08-11T01:46:37.869Z,26.40
2022-08-11T01:50:05.723Z,26.40
2022-08-11T01:52:30.303Z,26.40
2022-08-11T01:55:24.202Z,26.50
2022-08-11T01:57:58.213Z,26.50
2022-08-11T02:00:30.077Z,26.50
2022-08-11T02:03:17.191Z,26.60
2022-08-11T02:06:01.613Z,26.60
2022-08-11T02:08:44.871Z,26.70
2022-08-11T02:11:35.657Z,26.70
2022-08-11T02:14:08.970Z,26.70
2022-08-11T02:16:56.068Z,26.80
2022-08-11T02:19:55.957Z,26.80
2022-08-11T02:23:09.603Z,26.80
2022-08-11T02:25:56.641Z,26.90
2022-08-11T02:28:33.026Z,26.90
2022-08-11T02:32:24.779Z,26.90
2022-08-11T02:34:29.151Z,27.00
2022-08-11T02:37:04.519Z,27.00
2022-08-11T02:39:47.950Z,27.00
2022-08-11T02:42:32.438Z,27.00
2022-08-11T02:45:13.768Z,27.00
2022-08-11T02:48:05.396Z,27.10
2022-08-11T02:50:37.994Z,27.10
2022-08-11T02:53:06.526Z,27.10
2022-08-11T02:55:48.030Z,27.10
2022-08-11T02:58:38.220Z,27.10
2022-08-11T03:01:18.006Z,27.10
2022-08-11T03:03:46.679Z,27.20
2022-08-11T03:06:26.515Z,27.10
2022-08-11T03:08:57.884Z,27.20
2022-08-11T03:11:50.810Z,27.20
2022-08-11T03:14:56.219Z,27.20
2022-08-11T03:17:32.168Z,27.20
2022-08-11T03:20:19.155Z,27.20
2022-08-11T03:22:47.777Z,27.30
2022-08-11T03:25:35.939Z,27.30
2022-08-11T03:28:13.435Z,27.40
2022-08-11T03:30:50.246Z,27.30
2022-08-11T03:33:42.896Z,27.40
2022-08-11T03:36:20.502Z,27.40
2022-08-11T03:39:07.707Z,27.40
2022-08-11T03:42:03.904Z,27.40
2022-08-11T03:44:43.278Z,27.40
2022-08-11T03:47:14.764Z,27.50
2022-08-11T03:49:59.212Z,27.50
2022-08-11T03:52:39.902Z,27.50
2022-08-11T03:55:28.600Z,27.60
2022-08-11T03:58:21.326Z,27.60
2022-08-11T04:00:52.609Z,27.60
2022-08-11T04:03:39.534Z,27.60
2022-08-11T04:06:14.352Z,27.60
2022-08-11T04:08:43.235Z,27.60
2022-08-11T04:11:23.865Z,27.70
2022-08-11T04:14:29.559Z,27.80
2022-08-11T04:17:22.642Z,27.80
2022-08-11T04:19:54.500Z,27.90
2022-08-11T04:22:23.245Z,27.90
2022-08-11T04:25:10.175Z,27.90
2022-08-11T04:27:57.363Z,28.00
2022-08-11T04:30:27.157Z,28.00
2022-08-11T04:33:14.043Z,28.00
2022-08-11T04:36:00.770Z,28.00
2022-08-11T04:38:47.794Z,28.10
2022-08-11T04:41:33.363Z,28.10
2022-08-11T04:44:21.215Z,28.10
2022-08-11T04:47:00.618Z,28.10
2022-08-11T04:49:59.039Z,28.20
2022-08-11T04:52:46.087Z,28.20
2022-08-11T04:55:51.441Z,28.20
2022-08-11T04:58:48.130Z,28.20
2022-08-11T05:01:43.924Z,28.20
2022-08-11T05:04:42.835Z,28.20
2022-08-11T05:07:17.093Z,28.20
2022-08-11T05:09:45.637Z,28.10
2022-08-11T05:12:22.285Z,28.10
2022-08-11T05:15:13.087Z,28.10
2022-08-11T05:18:20.761Z,28.10
2022-08-11T05:21:12.389Z,28.10
2022-08-11T05:24:01.525Z,28.10
2022-08-11T05:26:49.950Z,28.10
2022-08-11T05:29:47.664Z,28.10
2022-08-11T05:32:37.237Z,28.10
2022-08-11T05:35:08.594Z,28.10
2022-08-11T05:37:43.192Z,28.20
2022-08-11T05:40:31.475Z,28.30
2022-08-11T05:43:31.662Z,28.30
2022-08-11T05:46:20.816Z,28.40
2022-08-11T05:49:10.191Z,28.30
2022-08-11T05:52:05.552Z,28.40
2022-08-11T05:55:06.968Z,28.40
2022-08-11T05:57:49.036Z,28.40
2022-08-11T06:00:20.410Z,28.40
2022-08-11T06:02:52.900Z,28.40
2022-08-11T06:05:21.684Z,28.40
2022-08-11T06:07:55.514Z,28.50
2022-08-11T06:10:36.449Z,28.60
2022-08-11T06:13:06.194Z,28.60
2022-08-11T06:15:37.377Z,28.70
2022-08-11T06:18:06.050Z,28.70
2022-08-11T06:20:38.614Z,28.70
2022-08-11T06:23:08.674Z,28.80
2022-08-11T06:25:38.101Z,28.80
2022-08-11T06:28:07.882Z,28.80
2022-08-11T06:30:41.572Z,28.90
2022-08-11T06:33:14.422Z,28.90
2022-08-11T06:35:49.427Z,28.90
2022-08-11T06:38:30.137Z,28.90
2022-08-11T06:41:19.088Z,29.00
2022-08-11T06:43:55.400Z,29.00
2022-08-11T06:46:30.124Z,29.00
2022-08-11T06:48:59.338Z,29.00
2022-08-11T06:51:32.612Z,28.90
2022-08-11T06:54:04.626Z,28.90
2022-08-11T06:57:12.448Z,28.90
2022-08-11T07:00:02.693Z,28.80
2022-08-11T07:02:47.575Z,28.80
2022-08-11T07:05:19.236Z,28.80
2022-08-11T07:08:34.668Z,28.80
2022-08-11T07:11:49.831Z,28.80
2022-08-11T07:14:40.693Z,28.80
2022-08-11T07:17:15.581Z,28.80
2022-08-11T07:20:03.405Z,28.80
2022-08-11T07:22:52.902Z,28.80
2022-08-11T07:25:43.362Z,28.80
2022-08-11T07:28:32.017Z,28.80
2022-08-11T07:31:05.193Z,28.70
2022-08-11T07:34:08.573Z,28.70
2022-08-11T07:36:38.826Z,28.80
2022-08-11T07:39:09.812Z,28.80
2022-08-11T07:41:38.668Z,28.80
2022-08-11T07:44:10.386Z,28.80
2022-08-11T07:47:01.733Z,28.80
2022-08-11T07:49:50.562Z,28.80
2022-08-11T07:52:30.655Z,28.80
2022-08-11T07:55:03.416Z,28.80
2022-08-11T07:58:14.304Z,28.80
2022-08-11T08:01:02.705Z,28.80
2022-08-11T08:03:54.233Z,28.80
2022-08-11T08:06:42.182Z,28.80
2022-08-11T08:09:29.848Z,28.80
2022-08-11T08:12:17.095Z,28.90
2022-08-11T08:15:03.763Z,28.90
2022-08-11T08:18:09.189Z,28.90
2022-08-11T08:20:50.837Z,28.90
2022-08-11T08:23:34.278Z,28.90
2022-08-11T08:26:05.755Z,28.90
2022-08-11T08:28:47.697Z,29.00
2022-08-11T08:31:16.699Z,29.00
2022-08-11T08:33:45.452Z,29.00
2022-08-11T08:36:15.575Z,29.00
2022-08-11T08:38:48.146Z,29.00
2022-08-11T08:41:18.956Z,29.10
2022-08-11T08:43:50.299Z,29.10
2022-08-11T08:46:20.851Z,29.00
2022-08-11T08:48:49.910Z,29.00
2022-08-11T08:51:58.729Z,29.00
2022-08-11T08:54:30.835Z,29.00
2022-08-11T08:56:59.847Z,29.00
2022-08-11T08:59:47.478Z,29.00
2022-08-11T09:02:18.888Z,29.00
2022-08-11T09:05:02.896Z,29.00
2022-08-11T09:07:38.772Z,29.00
2022-08-11T09:10:09.822Z,29.00
2022-08-11T09:12:40.011Z,28.90
2022-08-11T09:15:11.255Z,28.90
2022-08-11T09:17:45.890Z,28.90
2022-08-11T09:20:25.811Z,28.90
2022-08-11T09:26:30.296Z,28.90
2022-08-11T09:29:00.579Z,28.90
2022-08-11T09:31:37.050Z,28.90
2022-08-11T09:34:08.492Z,28.90
2022-08-11T09:36:55.237Z,28.90
2022-08-11T09:39:42.723Z,28.90
2022-08-11T09:42:16.492Z,28.90
2022-08-11T09:44:52.301Z,28.90
2022-08-11T09:47:31.071Z,28.90
2022-08-11T09:50:02.074Z,28.80
2022-08-11T09:52:34.128Z,28.90
2022-08-11T09:55:04.419Z,28.80
2022-08-11T09:57:51.435Z,28.80
2022-08-11T10:00:20.106Z,28.80
2022-08-11T10:02:49.839Z,28.80
2022-08-11T10:05:39.270Z,28.80
2022-08-11T10:08:10.488Z,28.80
2022-08-11T10:10:40.505Z,28.80
2022-08-11T10:14:32.080Z,28.80
2022-08-11T10:16:14.753Z,28.80
2022-08-11T10:18:55.126Z,28.80
2022-08-11T10:21:29.369Z,28.70
2022-08-11T10:24:18.102Z,28.70
2022-08-11T10:26:53.972Z,28.70
2022-08-11T10:29:45.232Z,28.70
2022-08-11T10:32:52.266Z,28.70
2022-08-11T10:35:29.192Z,28.70
2022-08-11T10:38:07.277Z,28.60
2022-08-11T10:40:41.016Z,28.60
2022-08-11T10:43:17.061Z,28.50
2022-08-11T10:46:29.831Z,28.50
2022-08-11T10:48:59.221Z,28.50
2022-08-11T10:51:51.894Z,28.50
2022-08-11T10:54:42.454Z,28.40
2022-08-11T10:57:29.755Z,28.40
2022-08-11T10:59:59.171Z,28.40
2022-08-11T11:02:31.283Z,28.40
2022-08-11T11:05:02.707Z,28.30
2022-08-11T11:07:44.592Z,28.30
2022-08-11T11:10:13.877Z,28.30
2022-08-11T11:16:08.398Z,28.30
2022-08-11T11:18:38.697Z,28.20
2022-08-11T11:21:17.233Z,28.20
2022-08-11T11:23:56.125Z,28.20
2022-08-11T11:26:31.669Z,28.20
2022-08-11T11:29:04.385Z,28.20
2022-08-11T11:31:33.541Z,28.10
2022-08-11T11:34:14.647Z,28.10
2022-08-11T11:36:43.746Z,28.10
2022-08-11T11:39:15.157Z,28.10
2022-08-11T11:41:46.737Z,28.10
2022-08-11T11:44:16.186Z,28.00
2022-08-11T11:46:46.933Z,28.00
2022-08-11T11:49:17.449Z,28.00
2022-08-11T11:51:51.013Z,28.00
2022-08-11T11:54:23.463Z,27.90
2022-08-11T11:56:54.683Z,27.90
2022-08-11T11:59:42.753Z,27.90
2022-08-11T12:02:12.978Z,27.90
2022-08-11T12:04:44.859Z,27.90
2022-08-11T12:07:32.233Z,27.90
2022-08-11T12:10:04.575Z,27.80
2022-08-11T12:12:51.915Z,27.80
2022-08-11T12:16:03.618Z,27.80
2022-08-11T12:18:12.168Z,27.80
2022-08-11T12:20:41.432Z,27.80
2022-08-11T12:23:29.353Z,27.80
2022-08-11T12:26:26.976Z,27.70
2022-08-11T12:28:59.648Z,27.70
2022-08-11T12:31:31.446Z,27.70
2022-08-11T12:34:04.621Z,27.70
2022-08-11T12:36:43.214Z,27.70
2022-08-11T12:39:24.230Z,27.70
2022-08-11T12:42:20.279Z,27.70
2022-08-11T12:45:07.506Z,27.70
2022-08-11T12:48:58.271Z,27.70
2022-08-11T12:51:26.033Z,27.70
2022-08-11T12:53:59.110Z,27.70
2022-08-11T12:56:49.432Z,27.60
2022-08-11T12:59:36.616Z,27.70
2022-08-11T13:02:23.848Z,27.70
2022-08-11T13:05:00.694Z,27.70
2022-08-11T13:07:47.640Z,27.70
2022-08-11T13:10:43.171Z,27.70
2022-08-11T13:13:54.215Z,27.70
2022-08-11T13:16:02.383Z,27.70
2022-08-11T13:18:31.700Z,27.70
2022-08-11T13:21:01.282Z,27.70
2022-08-11T13:23:31.070Z,27.70
2022-08-11T13:26:00.459Z,27.70
2022-08-11T13:28:29.581Z,27.70
2022-08-11T13:31:13.666Z,27.60
2022-08-11T13:33:44.040Z,27.60
2022-08-11T13:36:13.968Z,27.60
2022-08-11T13:38:49.505Z,27.60
2022-08-11T13:41:38.542Z,27.60
2022-08-11T13:44:08.920Z,27.60
2022-08-11T13:46:44.623Z,27.60
2022-08-11T13:49:17.808Z,27.60
2022-08-11T13:51:47.109Z,27.60
2022-08-11T13:54:23.649Z,27.60
2022-08-11T13:56:55.312Z,27.60
2022-08-11T13:59:30.124Z,27.60
2022-08-11T14:02:28.670Z,27.60
2022-08-11T14:05:08.104Z,27.50
2022-08-11T14:07:41.380Z,27.50
2022-08-11T14:10:12.985Z,27.50
2022-08-11T14:13:01.359Z,27.50
2022-08-11T14:15:30.469Z,27.50
2022-08-11T14:18:04.735Z,27.50
2022-08-11T14:20:54.685Z,27.50
2022-08-11T14:23:41.932Z,27.50
2022-08-11T14:26:29.098Z,27.40
2022-08-11T14:29:06.617Z,27.40
2022-08-11T14:31:37.035Z,27.40
2022-08-11T14:34:08.061Z,27.40
2022-08-11T14:36:39.380Z,27.40
2022-08-11T14:39:13.994Z,27.40
2022-08-11T14:42:10.993Z,27.40
2022-08-11T14:45:01.860Z,27.40
2022-08-11T14:47:33.223Z,27.40
2022-08-11T14:50:10.776Z,27.40
2022-08-11T14:52:42.298Z,27.40
2022-08-11T14:55:29.305Z,27.40
2022-08-11T14:57:58.141Z,27.40
2022-08-11T15:00:27.631Z,27.30
2022-08-11T15:03:13.390Z,27.40
2022-08-11T15:05:55.835Z,27.40
2022-08-11T15:08:46.856Z,27.30
2022-08-11T15:11:35.000Z,27.30
2022-08-11T15:14:04.877Z,27.40
2022-08-11T15:16:51.872Z,27.40
2022-08-11T15:19:23.821Z,27.40
2022-08-11T15:22:11.196Z,27.40
2022-08-11T15:24:39.885Z,27.40
2022-08-11T15:27:33.995Z,27.30
2022-08-11T15:30:32.833Z,27.30
2022-08-11T15:33:28.775Z,27.30
2022-08-11T15:36:16.879Z,27.30
2022-08-11T15:38:48.788Z,27.30
2022-08-11T15:41:43.838Z,27.30
2022-08-11T15:44:59.035Z,27.20
2022-08-11T15:47:24.368Z,27.30
2022-08-11T15:50:10.430Z,27.20
2022-08-11T15:52:47.205Z,27.20
2022-08-11T15:55:16.405Z,27.20
2022-08-11T15:58:04.242Z,27.20
2022-08-11T16:00:58.720Z,27.20
2022-08-11T16:04:06.797Z,27.20
2022-08-11T16:06:38.960Z,27.20
2022-08-11T16:09:18.216Z,27.10
2022-08-11T16:11:48.343Z,27.10
2022-08-11T16:14:35.958Z,27.10
2022-08-11T16:17:05.874Z,27.10
2022-08-11T16:19:36.093Z,27.10
2022-08-11T16:22:08.398Z,27.10
2022-08-11T16:27:06.892Z,27.10
2022-08-11T16:27:28.493Z,27.10
2022-08-11T16:29:57.548Z,27.10
2022-08-11T16:32:28.139Z,27.10
2022-08-11T16:35:36.258Z,27.10
2022-08-11T16:38:24.327Z,27.10
2022-08-11T16:40:54.234Z,27.10
2022-08-11T16:43:42.916Z,27.10
2022-08-11T16:46:32.149Z,27.10
2022-08-11T16:49:01.459Z,27.10
2022-08-11T16:51:29.983Z,27.00
2022-08-11T16:54:05.830Z,27.00
2022-08-11T16:56:37.794Z,27.00
2022-08-11T16:59:17.003Z,27.00
2022-08-11T17:01:59.719Z,27.00
2022-08-11T17:04:57.715Z,27.00
2022-08-11T17:07:45.620Z,26.90
2022-08-11T17:10:53.350Z,26.90
2022-08-11T17:13:27.350Z,26.90
2022-08-11T17:16:09.780Z,26.90
2022-08-11T17:18:56.701Z,26.90
2022-08-11T17:21:35.124Z,26.90
2022-08-11T17:24:09.350Z,26.90
2022-08-11T17:27:00.569Z,26.80
2022-08-11T17:29:54.572Z,26.80
2022-08-11T17:32:56.934Z,26.80
2022-08-11T17:35:31.750Z,26.80
2022-08-11T17:38:00.268Z,26.80
2022-08-11T17:40:29.940Z,26.80
2022-08-11T17:43:17.780Z,26.80
2022-08-11T17:46:06.089Z,26.80
2022-08-11T17:48:47.891Z,26.80
2022-08-11T17:51:39.853Z,26.80
2022-08-11T17:54:27.327Z,26.80
2022-08-11T17:57:21.268Z,26.80
2022-08-11T17:59:54.108Z,26.80
2022-08-11T18:02:57.821Z,26.80
2022-08-11T18:05:28.185Z,26.80
2022-08-11T18:08:16.382Z,26.80
2022-08-11T18:11:03.695Z,26.80
2022-08-11T18:13:52.522Z,26.80
2022-08-11T18:16:39.897Z,26.70
2022-08-11T18:19:27.104Z,26.70
2022-08-11T18:22:23.121Z,26.70
2022-08-11T18:25:13.309Z,26.70
2022-08-11T18:28:01.554Z,26.70
2022-08-11T18:30:48.785Z,26.60
2022-08-11T18:34:06.369Z,26.60
2022-08-11T18:36:46.284Z,26.60
2022-08-11T18:39:34.242Z,26.60
2022-08-11T18:42:29.777Z,26.60
2022-08-11T18:45:18.894Z,26.50
2022-08-11T18:48:09.257Z,26.50
2022-08-11T18:51:30.011Z,26.50
2022-08-11T18:54:07.674Z,26.50
2022-08-11T18:56:54.851Z,26.50
2022-08-11T18:59:44.027Z,26.50
2022-08-11T19:02:32.979Z,26.50
2022-08-11T19:06:32.385Z,26.50
2022-08-11T19:08:44.662Z,26.50
2022-08-11T19:11:32.922Z,26.50
2022-08-11T19:14:21.634Z,26.40
2022-08-11T19:17:08.885Z,26.40
2022-08-11T19:19:56.711Z,26.40
2022-08-11T19:22:44.399Z,26.40
2022-08-11T19:25:31.729Z,26.40
2022-08-11T19:28:18.978Z,26.30
2022-08-11T19:31:05.825Z,26.40
2022-08-11T19:34:03.092Z,26.30
2022-08-11T19:36:57.377Z,26.30
2022-08-11T19:39:46.242Z,26.30
2022-08-11T19:42:33.888Z,26.30
2022-08-11T19:45:21.574Z,26.30
2022-08-11T19:48:30.695Z,26.30
2022-08-11T19:51:15.744Z,26.30
2022-08-11T19:54:03.150Z,26.30
2022-08-11T19:56:51.054Z,26.30
2022-08-11T19:59:39.734Z,26.30
2022-08-11T20:02:26.532Z,26.30
2022-08-11T20:05:13.465Z,26.30
2022-08-11T20:08:00.730Z,26.20
2022-08-11T20:10:48.556Z,26.20
2022-08-11T20:13:35.413Z,26.20
2022-08-11T20:16:25.817Z,26.20
2022-08-11T20:19:13.086Z,26.20
2022-08-11T20:22:01.815Z,26.20
2022-08-11T20:24:52.277Z,26.20
2022-08-11T20:27:44.800Z,26.20
2022-08-11T20:30:32.111Z,26.20
2022-08-11T20:33:19.439Z,26.20
2022-08-11T20:36:08.159Z,26.20
2022-08-11T20:38:55.952Z,26.20
2022-08-11T20:41:58.745Z,26.20
2022-08-11T20:44:47.053Z,26.10
2022-08-11T20:47:56.499Z,26.20
2022-08-11T20:50:45.896Z,26.10
2022-08-11T20:53:35.624Z,26.10
2022-08-11T20:56:28.468Z,26.10
2022-08-11T20:59:21.863Z,26.10
2022-08-11T21:02:11.179Z,26.00
2022-08-11T21:05:00.297Z,26.00
2022-08-11T21:07:55.319Z,26.00
2022-08-11T21:10:47.162Z,26.00
2022-08-11T21:13:37.845Z,26.00
2022-08-11T21:16:27.268Z,26.00
2022-08-11T21:19:16.936Z,25.90
2022-08-11T21:22:04.886Z,26.00
2022-08-11T21:24:53.064Z,25.90
2022-08-11T21:27:40.660Z,26.00
2022-08-11T21:30:28.211Z,25.90
2022-08-11T21:33:15.146Z,25.90
2022-08-11T21:36:01.962Z,25.90
2022-08-11T21:38:48.813Z,25.80
2022-08-11T21:41:36.727Z,25.80
2022-08-11T21:44:24.947Z,25.80
2022-08-11T21:47:13.238Z,25.80
2022-08-11T21:50:00.543Z,25.80
2022-08-11T21:52:47.316Z,25.80
2022-08-11T21:55:34.011Z,25.80
2022-08-11T21:58:21.307Z,25.80
2022-08-11T22:01:08.140Z,25.70
2022-08-11T22:03:58.589Z,25.70
2022-08-11T22:06:46.365Z,25.70
2022-08-11T22:09:33.149Z,25.70
2022-08-11T22:12:41.266Z,25.70
2022-08-11T22:15:27.758Z,25.80
2022-08-11T22:18:14.470Z,25.70
2022-08-11T22:21:02.351Z,25.70
2022-08-11T22:23:49.675Z,25.70
2022-08-11T22:26:37.365Z,25.70
2022-08-11T22:29:38.079Z,25.70
2022-08-11T22:32:36.482Z,25.70
2022-08-11T22:35:23.642Z,25.70
2022-08-11T22:38:10.487Z,25.70
2022-08-11T22:40:57.228Z,25.70
2022-08-11T22:43:43.989Z,25.70
2022-08-11T22:46:31.563Z,25.70
2022-08-11T22:49:19.149Z,25.70
2022-08-11T22:52:06.235Z,25.70
2022-08-11T22:54:53.953Z,25.60
2022-08-11T22:57:41.392Z,25.60
2022-08-11T23:00:47.762Z,25.60
2022-08-11T23:03:38.258Z,25.60
2022-08-11T23:06:25.396Z,25.70
2022-08-11T23:09:13.133Z,25.70
2022-08-11T23:12:06.607Z,25.70
2022-08-11T23:14:54.676Z,25.70
2022-08-11T23:17:42.022Z,25.70
2022-08-11T23:20:46.396Z,25.70
2022-08-11T23:23:36.832Z,25.70
2022-08-11T23:26:24.006Z,25.70
2022-08-11T23:29:11.804Z,25.70
2022-08-11T23:31:59.129Z,25.60
2022-08-11T23:35:03.791Z,25.60
2022-08-11T23:37:56.232Z,25.60
2022-08-11T23:40:46.970Z,25.60
2022-08-11T23:43:43.832Z,25.60
2022-08-11T23:46:30.566Z,25.60
2022-08-11T23:49:21.374Z,25.60
2022-08-11T23:52:08.833Z,25.60
2022-08-11T23:54:56.177Z,25.60
2022-08-11T23:57:48.927Z,25.70
